Star Vega — 3EVB3 — position and weather

sailwx.info

Track history (hours):
 
Tides and Currents Weather Stations Pressure Air Temp Water Temp Dewpoint Dewpoint Depression Visibility Wind Speed Wind Dir Waves Ship Positions

Star Vega

Last reported at 2014-Sep-14 03:13 UTC. Time now 2014-Sep-16 07:29 UTC.
Position N 41°01' E 028°60'.

Length 189 m; draft 6.1 m.

Type: Cargo ship. MMSI: 354143000.

Date/timePositionNaut miles runAvg speedWind from/ knotsBaromVisibWave heightAir tempDewpointWater temp
2014-Sep-14 03:13N 41°01' E 028°60'5 7.5
2014-Sep-14 02:33N 40°56' E 028°58'3 0.4
2014-Sep-13 18:24N 40°58' E 028°54'0 0.0
2014-Sep-13 17:24N 40°58' E 028°54'0 0.0
2014-Sep-13 11:12N 40°58' E 028°54'1 1.5
2014-Sep-13 10:33N 40°57' E 028°55'6 5.8
2014-Sep-13 09:33N 40°52' E 028°53'16811.1
2014-Sep-12 18:24N 39°32' E 025°39'1412.8
2014-Sep-12 17:20N 39°20' E 025°32'11512.8
2014-Sep-12 08:25N 37°37' E 024°26'1212.9
2014-Sep-12 07:31N 37°27' E 024°20'1212.9
2014-Sep-12 06:33N 37°16' E 024°13'1312.8
2014-Sep-12 05:33N 37°04' E 024°06'1512.7
2014-Sep-12 04:24N 36°51' E 023°58'1112.5
2014-Sep-12 03:33N 36°42' E 023°52'1412.8
2014-Sep-12 02:27N 36°34' E 023°37'  
Track history (hours):
 
Tides and Currents Weather Stations Pressure Air Temp Water Temp Dewpoint Dewpoint Depression Visibility Wind Speed Wind Dir Waves Ship Positions

Star Vega

Last reported at 2014-Sep-14 03:13 UTC. Time now 2014-Sep-16 07:29 UTC.
Position N 41°01' E 028°60'.

Length 189 m; draft 6.1 m.

Type: Cargo ship. MMSI: 354143000.

Date/timePositionNaut miles runAvg speedWind from/ knotsBaromVisibWave heightAir tempDewpointWater temp
2014-Sep-14 03:13N 41°01' E 028°60'5 7.5
2014-Sep-14 02:33N 40°56' E 028°58'3 0.4
2014-Sep-13 18:24N 40°58' E 028°54'0 0.0
2014-Sep-13 17:24N 40°58' E 028°54'0 0.0
2014-Sep-13 11:12N 40°58' E 028°54'1 1.5
2014-Sep-13 10:33N 40°57' E 028°55'6 5.8
2014-Sep-13 09:33N 40°52' E 028°53'16811.1
2014-Sep-12 18:24N 39°32' E 025°39'1412.8
2014-Sep-12 17:20N 39°20' E 025°32'11512.8
2014-Sep-12 08:25N 37°37' E 024°26'1212.9
2014-Sep-12 07:31N 37°27' E 024°20'1212.9
2014-Sep-12 06:33N 37°16' E 024°13'1312.8
2014-Sep-12 05:33N 37°04' E 024°06'1512.7
2014-Sep-12 04:24N 36°51' E 023°58'1112.5
2014-Sep-12 03:33N 36°42' E 023°52'1412.8
2014-Sep-12 02:27N 36°34' E 023°37'  

Dump ship's entire track history